createdAt,value
2022-11-29T00:03:22.607Z,9.09
2022-11-29T00:08:24.345Z,9.10
2022-11-29T00:13:25.702Z,9.13
2022-11-29T00:18:27.036Z,9.09
2022-11-29T00:23:28.421Z,9.12
2022-11-29T00:28:29.747Z,9.15
2022-11-29T00:33:31.089Z,9.11
2022-11-29T00:38:32.456Z,9.13
2022-11-29T00:43:34.135Z,9.14
2022-11-29T00:48:35.812Z,9.14
2022-11-29T00:53:37.731Z,9.16
2022-11-29T00:58:39.120Z,9.07
2022-11-29T01:03:40.886Z,9.07
2022-11-29T01:08:42.584Z,9.02
2022-11-29T01:13:44.582Z,9.01
2022-11-29T01:18:46.152Z,8.98
2022-11-29T01:23:49.075Z,9.02
2022-11-29T01:28:52.029Z,9.07
2022-11-29T01:33:57.974Z,9.05
2022-11-29T01:39:04.444Z,9.10
2022-11-29T01:44:29.381Z,9.12
2022-11-29T01:49:38.131Z,9.16
2022-11-29T01:54:42.663Z,9.15
2022-11-29T01:59:49.462Z,9.10
2022-11-29T02:04:51.305Z,9.13
2022-11-29T02:09:52.695Z,9.17
2022-11-29T02:15:18.154Z,9.16
2022-11-29T02:20:57.080Z,9.13
2022-11-29T02:26:19.743Z,9.12
2022-11-29T02:31:54.108Z,9.10
2022-11-29T02:37:15.117Z,9.10
2022-11-29T02:42:31.260Z,9.09
2022-11-29T02:48:15.985Z,9.11
2022-11-29T02:53:22.783Z,9.12
2022-11-29T02:58:33.165Z,9.13
2022-11-29T03:03:51.963Z,9.15
2022-11-29T03:09:12.275Z,9.14
2022-11-29T03:14:25.889Z,9.13
2022-11-29T03:19:45.364Z,9.13
2022-11-29T03:24:54.963Z,9.17
2022-11-29T03:30:00.689Z,9.21
2022-11-29T03:35:25.525Z,9.25
2022-11-29T03:40:57.135Z,9.26
2022-11-29T03:46:03.871Z,9.22
2022-11-29T03:51:26.625Z,9.19
2022-11-29T03:56:37.836Z,9.20
2022-11-29T04:01:59.326Z,9.20
2022-11-29T04:07:01.017Z,9.15
2022-11-29T04:12:28.996Z,8.98
2022-11-29T04:17:36.287Z,8.93
2022-11-29T04:22:43.791Z,8.91
2022-11-29T04:28:03.661Z,9.06
2022-11-29T04:33:49.301Z,9.18
2022-11-29T04:39:00.050Z,9.28
2022-11-29T04:44:10.650Z,9.34
2022-11-29T04:49:37.053Z,9.38
2022-11-29T04:55:05.566Z,9.37
2022-11-29T05:00:22.645Z,9.42
2022-11-29T05:05:43.036Z,9.44
2022-11-29T05:11:09.282Z,9.45
2022-11-29T05:16:29.351Z,9.45
2022-11-29T05:21:46.817Z,9.48
2022-11-29T05:27:01.571Z,9.56
2022-11-29T05:32:40.695Z,9.51
2022-11-29T05:38:00.321Z,9.55
2022-11-29T05:43:38.576Z,9.52
2022-11-29T05:48:56.616Z,9.49
2022-11-29T05:54:00.954Z,9.40
2022-11-29T05:59:13.957Z,9.48
2022-11-29T06:04:21.954Z,9.55
2022-11-29T06:09:32.156Z,9.62
2022-11-29T06:14:45.896Z,9.64
2022-11-29T06:20:13.044Z,9.66
2022-11-29T06:25:48.302Z,9.63
2022-11-29T06:31:02.089Z,9.61
2022-11-29T06:36:22.924Z,9.67
2022-11-29T06:41:24.714Z,9.71
2022-11-29T06:46:42.226Z,9.73
2022-11-29T06:52:14.011Z,9.72
2022-11-29T06:57:40.121Z,9.71
2022-11-29T07:02:52.026Z,9.78
2022-11-29T07:07:57.043Z,9.85
2022-11-29T07:12:58.862Z,9.86
2022-11-29T07:18:29.577Z,9.89
2022-11-29T07:23:49.102Z,9.90
2022-11-29T07:28:57.680Z,9.89
2022-11-29T07:34:12.625Z,9.88
2022-11-29T07:39:24.815Z,9.93
2022-11-29T07:44:35.470Z,9.96
2022-11-29T07:49:36.839Z,9.99
2022-11-29T07:54:38.478Z,9.98
2022-11-29T07:59:39.836Z,9.94
2022-11-29T08:04:44.345Z,10.00
2022-11-29T08:09:46.449Z,10.00
2022-11-29T08:14:48.142Z,10.02
2022-11-29T08:19:49.613Z,10.01
2022-11-29T08:24:50.958Z,10.03
2022-11-29T08:29:52.464Z,10.01
2022-11-29T08:34:53.857Z,10.07
2022-11-29T08:39:56.057Z,10.10
2022-11-29T08:44:57.518Z,10.03
2022-11-29T08:50:01.756Z,10.08
2022-11-29T08:55:03.509Z,10.11
2022-11-29T09:00:06.366Z,10.12
2022-11-29T09:05:09.763Z,10.15
2022-11-29T09:10:12.133Z,10.20
2022-11-29T09:15:13.610Z,10.23
2022-11-29T09:20:15.079Z,10.12
2022-11-29T09:25:16.517Z,10.19
2022-11-29T09:30:23.549Z,10.20
2022-11-29T09:35:25.335Z,10.13
2022-11-29T09:40:32.602Z,9.98
2022-11-29T09:45:41.448Z,10.01
2022-11-29T09:50:57.719Z,10.01
2022-11-29T09:56:57.550Z,10.10
2022-11-29T10:02:21.348Z,10.20
2022-11-29T10:07:46.193Z,10.23
2022-11-29T10:12:56.431Z,10.34
2022-11-29T10:18:23.218Z,10.43
2022-11-29T10:23:32.758Z,10.48
2022-11-29T10:28:36.460Z,10.47
2022-11-29T10:33:40.501Z,10.60
2022-11-29T10:38:44.466Z,10.68
2022-11-29T10:43:46.295Z,10.70
2022-11-29T10:48:47.675Z,10.75
2022-11-29T10:53:50.054Z,10.81
2022-11-29T10:59:04.958Z,10.85
2022-11-29T11:04:09.913Z,10.82
2022-11-29T11:09:34.124Z,10.86
2022-11-29T11:14:38.676Z,10.79
2022-11-29T11:19:40.130Z,10.71
2022-11-29T11:24:44.086Z,10.66
2022-11-29T11:29:45.679Z,10.72
2022-11-29T11:34:55.756Z,10.74
2022-11-29T11:40:19.430Z,10.71
2022-11-29T11:45:53.509Z,10.76
2022-11-29T11:50:58.199Z,10.85
2022-11-29T11:56:07.181Z,10.93
2022-11-29T12:01:28.582Z,11.03
2022-11-29T12:07:08.589Z,11.07
2022-11-29T12:12:15.720Z,11.10
2022-11-29T12:17:48.965Z,11.11
2022-11-29T12:22:53.101Z,11.07
2022-11-29T12:27:54.530Z,11.06
2022-11-29T12:33:06.202Z,11.13
2022-11-29T12:38:24.477Z,11.20
2022-11-29T12:43:50.456Z,11.23
2022-11-29T12:49:06.239Z,11.26
2022-11-29T12:54:33.884Z,11.34
2022-11-29T12:59:48.006Z,11.37
2022-11-29T13:05:18.833Z,11.41
2022-11-29T13:10:26.638Z,11.40
2022-11-29T13:15:40.448Z,11.35
2022-11-29T13:20:50.941Z,11.29
2022-11-29T13:25:55.954Z,11.34
2022-11-29T13:31:02.725Z,11.38
2022-11-29T13:36:46.541Z,11.35
2022-11-29T13:41:50.784Z,11.37
2022-11-29T13:46:59.254Z,11.36
2022-11-29T13:52:05.775Z,11.31
2022-11-29T13:57:09.570Z,11.32
2022-11-29T14:02:31.576Z,11.24
2022-11-29T14:07:34.952Z,11.30
2022-11-29T14:12:54.073Z,11.28
2022-11-29T14:18:02.283Z,11.33
2022-11-29T14:23:06.665Z,11.31
2022-11-29T14:28:14.213Z,11.31
2022-11-29T14:33:26.925Z,11.34
2022-11-29T14:38:39.952Z,11.31
2022-11-29T14:43:42.705Z,11.26
2022-11-29T14:48:56.697Z,11.24
2022-11-29T14:54:19.810Z,11.24
2022-11-29T14:59:53.088Z,11.22
2022-11-29T15:05:05.074Z,11.19
2022-11-29T15:10:17.812Z,11.18
2022-11-29T15:15:28.012Z,11.15
2022-11-29T15:20:55.084Z,11.08
2022-11-29T15:26:00.653Z,11.03
2022-11-29T15:31:08.557Z,10.99
2022-11-29T15:36:24.177Z,10.97
2022-11-29T15:41:30.728Z,10.93
2022-11-29T15:46:34.999Z,10.82
2022-11-29T15:51:38.587Z,10.82
2022-11-29T15:56:53.722Z,10.81
2022-11-29T16:01:58.769Z,10.82
2022-11-29T16:07:00.230Z,10.75
2022-11-29T16:12:02.618Z,10.67
2022-11-29T16:17:05.287Z,10.65
2022-11-29T16:22:16.629Z,10.51
2022-11-29T16:27:20.043Z,10.34
2022-11-29T16:32:33.867Z,10.33
2022-11-29T16:37:40.088Z,10.39
2022-11-29T16:42:43.783Z,10.50
2022-11-29T16:48:00.303Z,10.44
2022-11-29T16:53:37.638Z,10.45
2022-11-29T16:59:25.078Z,10.52
2022-11-29T17:04:01.303Z,10.61
2022-11-29T17:09:03.421Z,10.65
2022-11-29T17:14:04.779Z,10.69
2022-11-29T17:19:06.166Z,10.73
2022-11-29T17:24:12.773Z,10.77
2022-11-29T17:29:16.162Z,10.77
2022-11-29T17:34:17.593Z,10.78
2022-11-29T17:39:20.234Z,10.80
2022-11-29T17:44:21.692Z,10.80
2022-11-29T17:49:23.036Z,10.83
2022-11-29T17:54:24.581Z,10.83
2022-11-29T17:59:25.934Z,10.82
2022-11-29T18:04:27.405Z,10.82
2022-11-29T18:09:28.798Z,10.82
2022-11-29T18:14:30.944Z,10.82
2022-11-29T18:19:32.562Z,10.83
2022-11-29T18:24:34.156Z,10.83
2022-11-29T18:29:39.147Z,10.83
2022-11-29T18:34:40.811Z,10.83
2022-11-29T18:39:42.174Z,10.81
2022-11-29T18:44:43.652Z,10.79
2022-11-29T18:49:45.083Z,10.78
2022-11-29T18:54:46.687Z,10.48
2022-11-29T18:59:48.217Z,10.32
2022-11-29T19:04:50.182Z,10.39
2022-11-29T19:09:51.514Z,10.34
2022-11-29T19:14:53.299Z,10.15
2022-11-29T19:19:54.953Z,10.08
2022-11-29T19:24:56.366Z,10.21
2022-11-29T19:29:57.721Z,10.20
2022-11-29T19:34:59.068Z,10.21
2022-11-29T19:40:00.451Z,10.14
2022-11-29T19:45:16.337Z,10.21
2022-11-29T19:50:18.653Z,10.30
2022-11-29T19:55:20.024Z,10.29
2022-11-29T20:00:21.534Z,10.32
2022-11-29T20:05:22.910Z,10.23
2022-11-29T20:10:25.265Z,10.08
2022-11-29T20:15:26.626Z,10.05
2022-11-29T20:20:28.070Z,10.15
2022-11-29T20:25:29.637Z,10.15
2022-11-29T20:30:31.109Z,10.08
2022-11-29T20:35:32.700Z,10.15
2022-11-29T20:41:02.523Z,10.20
2022-11-29T20:46:04.785Z,10.14
2022-11-29T20:51:06.691Z,10.10
2022-11-29T20:56:10.371Z,10.14
2022-11-29T21:01:11.867Z,10.05
2022-11-29T21:06:13.338Z,10.11
2022-11-29T21:11:15.300Z,10.05
2022-11-29T21:16:17.120Z,10.05
2022-11-29T21:21:24.654Z,10.05
2022-11-29T21:26:34.071Z,10.04
2022-11-29T21:31:38.891Z,10.01
2022-11-29T21:36:40.738Z,10.02
2022-11-29T21:41:42.618Z,9.98
2022-11-29T21:46:44.114Z,9.98
2022-11-29T21:51:45.567Z,9.99
2022-11-29T21:56:47.013Z,9.99
2022-11-29T22:01:48.783Z,9.92
2022-11-29T22:06:50.272Z,9.90
2022-11-29T22:11:51.661Z,9.88
2022-11-29T22:16:55.187Z,9.85
2022-11-29T22:21:59.483Z,9.86
2022-11-29T22:27:01.671Z,9.83
2022-11-29T22:32:03.086Z,9.81
2022-11-29T22:37:04.425Z,9.81
2022-11-29T22:42:05.795Z,9.79
2022-11-29T22:47:07.196Z,9.79
2022-11-29T22:52:08.607Z,9.79
2022-11-29T22:57:09.991Z,9.79
2022-11-29T23:02:11.337Z,9.78
2022-11-29T23:07:12.689Z,9.74
2022-11-29T23:12:14.025Z,9.74
2022-11-29T23:17:15.394Z,9.74
2022-11-29T23:22:16.764Z,9.75
2022-11-29T23:27:18.185Z,9.75
2022-11-29T23:32:19.562Z,9.76
2022-11-29T23:37:20.895Z,9.62
2022-11-29T23:42:22.234Z,9.65
2022-11-29T23:47:23.898Z,9.71
2022-11-29T23:52:25.277Z,9.75
2022-11-29T23:57:29.278Z,9.78
